Time;durP1;ratioP1;P1;durP2;ratioP2;P2;SDS_P1;SDS_P2;PMS_P1;PMS_P2;Temp;Humidity;BMP_temperature;BMP_pressure;BME280_temperature;BME280_humidity;BME280_pressure;Samples;Min_cycle;Max_cycle;Signal;HPM_P1;HPM_P2
2023/12/08 00:01:18;;;;;;;0.00;0.00;;;7.80;75.80;;;;;;5087207;28;20203;-27
2023/12/08 00:03:45;;;;;;;0.00;0.00;;;7.80;75.80;;;;;;5087429;28;20695;-27
2023/12/08 00:06:17;;;;;;;0.00;0.00;;;7.80;75.80;;;;;;5086788;28;20227;-26
2023/12/08 00:08:44;;;;;;;0.00;0.00;;;7.80;75.80;;;;;;5085790;28;20202;-26
2023/12/08 00:11:14;;;;;;;0.00;0.00;;;7.80;75.80;;;;;;5086236;28;20222;-26
2023/12/08 00:13:47;;;;;;;0.00;0.00;;;7.80;75.80;;;;;;5085344;28;20194;-26
2023/12/08 00:16:15;;;;;;;0.00;0.00;;;7.80;75.80;;;;;;5086506;28;20234;-27
2023/12/08 00:18:44;;;;;;;0.00;0.00;;;7.80;75.80;;;;;;5085225;28;20195;-26
2023/12/08 00:21:12;;;;;;;0.00;0.00;;;7.90;75.90;;;;;;5086485;28;20202;-26
2023/12/08 00:23:39;;;;;;;0.00;0.00;;;7.90;75.80;;;;;;5085161;28;20233;-27
2023/12/08 00:26:06;;;;;;;0.00;0.00;;;7.90;75.90;;;;;;5085318;28;20677;-26
2023/12/08 00:28:36;;;;;;;0.00;0.00;;;7.90;75.80;;;;;;5084564;28;20725;-26
2023/12/08 00:31:09;;;;;;;0.00;0.00;;;7.90;75.80;;;;;;5084991;28;20568;-26
2023/12/08 00:33:36;;;;;;;0.00;0.00;;;7.90;75.70;;;;;;5069730;28;20658;-26
2023/12/08 00:36:16;;;;;;;0.00;0.00;;;7.90;75.70;;;;;;5066163;28;20323;-26
2023/12/08 00:38:46;;;;;;;0.00;0.00;;;7.90;75.70;;;;;;5068030;28;20204;-26
2023/12/08 00:41:16;;;;;;;0.00;0.00;;;7.90;75.70;;;;;;5065547;28;20689;-26
2023/12/08 00:43:46;;;;;;;0.00;0.00;;;7.90;75.70;;;;;;5066058;28;20244;-26
2023/12/08 00:46:17;;;;;;;0.00;0.00;;;7.90;75.70;;;;;;5066179;28;20195;-26
2023/12/08 00:48:44;;;;;;;0.00;0.00;;;7.90;75.70;;;;;;5066107;28;20223;-26
2023/12/08 00:51:14;;;;;;;0.00;0.00;;;7.90;75.70;;;;;;5065641;28;20307;-26
2023/12/08 00:53:44;;;;;;;0.00;0.00;;;7.90;75.70;;;;;;5064724;28;20290;-26
2023/12/08 00:56:14;;;;;;;0.00;0.00;;;7.90;75.80;;;;;;5063281;28;20591;-26
2023/12/08 00:58:41;;;;;;;0.07;0.00;;;7.90;75.80;;;;;;5066507;28;20508;-26
2023/12/08 01:01:11;;;;;;;0.00;0.00;;;7.90;75.70;;;;;;5064303;28;20613;-26
2023/12/08 01:03:41;;;;;;;0.00;0.00;;;7.90;75.70;;;;;;5066082;28;20689;-26
2023/12/08 01:06:08;;;;;;;0.00;0.00;;;7.90;75.70;;;;;;5065828;28;20238;-26
2023/12/08 01:08:35;;;;;;;0.00;0.00;;;7.90;75.70;;;;;;5065452;28;20245;-27
2023/12/08 01:11:03;;;;;;;0.00;0.00;;;7.90;75.70;;;;;;5065452;28;20610;-26
2023/12/08 01:13:35;;;;;;;0.00;0.00;;;7.90;75.70;;;;;;5065140;28;20615;-27
2023/12/08 01:16:06;;;;;;;0.00;0.00;;;7.90;75.70;;;;;;5065089;28;20226;-26
2023/12/08 01:18:38;;;;;;;0.00;0.00;;;7.90;75.70;;;;;;5065368;28;20195;-26
2023/12/08 01:21:06;;;;;;;0.00;0.00;;;7.90;75.70;;;;;;5063364;28;20196;-26
2023/12/08 01:23:34;;;;;;;0.00;0.00;;;7.90;75.70;;;;;;5065386;28;20298;-27
2023/12/08 01:26:08;;;;;;;0.00;0.00;;;7.90;75.70;;;;;;5047124;28;20200;-26
2023/12/08 01:28:41;;;;;;;0.00;0.00;;;7.90;75.70;;;;;;5045643;28;20207;-26
2023/12/08 01:31:13;;;;;;;0.00;0.00;;;7.90;75.70;;;;;;5045083;28;20207;-26
2023/12/08 01:33:43;;;;;;;0.00;0.00;;;7.90;75.70;;;;;;5045891;28;20221;-26
2023/12/08 01:36:12;;;;;;;0.00;0.00;;;7.90;75.70;;;;;;5046578;28;20224;-27
2023/12/08 01:39:00;;;;;;;0.00;0.00;;;7.90;75.70;;;;;;5047540;28;20212;-26
2023/12/08 01:41:29;;;;;;;0.00;0.00;;;7.90;75.90;;;;;;5044979;28;20204;-26
2023/12/08 01:43:58;;;;;;;0.00;0.00;;;7.90;75.90;;;;;;5047250;28;20215;-26
2023/12/08 01:46:26;;;;;;;0.00;0.00;;;7.90;75.80;;;;;;5045536;28;20307;-26
2023/12/08 01:48:56;;;;;;;0.00;0.00;;;7.90;75.80;;;;;;5047231;28;20220;-26
2023/12/08 01:51:24;;;;;;;0.00;0.00;;;7.90;75.80;;;;;;5046662;28;20614;-27
2023/12/08 01:53:52;;;;;;;0.00;0.00;;;7.90;75.70;;;;;;5043772;28;20527;-26
2023/12/08 01:56:20;;;;;;;0.00;0.00;;;8.00;75.80;;;;;;5042494;28;20866;-26
2023/12/08 01:58:48;;;;;;;0.00;0.00;;;7.90;75.70;;;;;;5052768;28;20214;-26
2023/12/08 02:01:18;;;;;;;0.00;0.00;;;8.00;75.80;;;;;;5064566;28;20581;-26
2023/12/08 02:03:50;;;;;;;0.00;0.00;;;8.00;75.90;;;;;;5062025;28;20199;-26
2023/12/08 02:06:20;;;;;;;0.00;0.00;;;7.90;75.80;;;;;;5051247;28;20239;-26
2023/12/08 02:08:50;;;;;;;0.00;0.00;;;8.00;75.80;;;;;;5053588;28;20578;-26
2023/12/08 02:11:18;;;;;;;0.00;0.00;;;7.90;75.80;;;;;;5063736;28;20237;-26
2023/12/08 02:13:46;;;;;;;0.00;0.00;;;7.90;75.70;;;;;;5062755;28;20210;-26
2023/12/08 02:16:34;;;;;;;0.00;0.00;;;8.00;75.80;;;;;;5048260;28;20286;-26
2023/12/08 02:19:08;;;;;;;0.00;0.00;;;8.00;75.90;;;;;;5064278;28;20202;-26
2023/12/08 02:21:41;;;;;;;0.00;0.00;;;7.90;75.70;;;;;;5055154;28;20196;-26
2023/12/08 02:24:10;;;;;;;0.00;0.00;;;7.90;75.80;;;;;;5064546;28;20208;-26
2023/12/08 02:26:40;;;;;;;0.00;0.00;;;7.90;75.80;;;;;;5063246;28;20203;-26
2023/12/08 02:29:10;;;;;;;0.00;0.00;;;7.90;75.80;;;;;;5066173;28;20210;-26
2023/12/08 02:32:03;;;;;;;0.00;0.00;;;7.90;75.80;;;;;;5064320;28;20216;-26
2023/12/08 02:34:35;;;;;;;0.00;0.00;;;7.90;75.80;;;;;;5065911;28;20725;-26
2023/12/08 02:37:06;;;;;;;0.00;0.00;;;7.90;75.80;;;;;;5065190;28;20227;-26
2023/12/08 02:39:39;;;;;;;0.00;0.00;;;7.90;75.80;;;;;;5064419;28;20211;-26
2023/12/08 02:42:11;;;;;;;0.00;0.00;;;7.90;75.90;;;;;;5062235;28;21077;-26
2023/12/08 02:44:38;;;;;;;0.00;0.00;;;7.90;75.80;;;;;;5064294;28;20207;-26
2023/12/08 02:47:06;;;;;;;0.00;0.00;;;7.90;75.90;;;;;;5062640;28;20750;-26
2023/12/08 02:49:37;;;;;;;0.00;0.00;;;7.90;75.80;;;;;;5065962;28;20212;-26
2023/12/08 02:52:07;;;;;;;0.00;0.00;;;7.90;75.80;;;;;;5068306;28;20223;-26
2023/12/08 02:54:39;;;;;;;0.00;0.00;;;7.90;75.80;;;;;;5066707;28;20227;-26
2023/12/08 02:57:08;;;;;;;0.00;0.00;;;7.90;75.80;;;;;;5067204;28;20271;-26
2023/12/08 02:59:40;;;;;;;0.00;0.00;;;7.90;75.80;;;;;;5066508;28;20303;-26
2023/12/08 03:02:10;;;;;;;0.00;0.00;;;7.90;75.80;;;;;;5068039;28;20202;-26
2023/12/08 03:04:42;;;;;;;0.00;0.00;;;7.90;75.80;;;;;;5068263;28;20198;-26
2023/12/08 03:07:09;;;;;;;0.00;0.00;;;7.90;75.80;;;;;;5067546;28;20235;-26
2023/12/08 03:09:37;;;;;;;0.00;0.00;;;7.90;75.80;;;;;;5066333;28;20211;-26
2023/12/08 03:12:06;;;;;;;0.00;0.00;;;7.90;75.80;;;;;;5067226;28;20210;-26
2023/12/08 03:14:34;;;;;;;0.00;0.00;;;7.90;75.80;;;;;;5065967;28;20204;-26
2023/12/08 03:17:01;;;;;;;0.00;0.00;;;7.90;75.70;;;;;;5050016;28;20232;-26
2023/12/08 03:19:33;;;;;;;0.00;0.00;;;7.90;75.80;;;;;;5049388;28;20296;-26
2023/12/08 03:22:02;;;;;;;0.00;0.00;;;7.90;75.70;;;;;;5049331;28;20197;-26
2023/12/08 03:24:30;;;;;;;0.00;0.00;;;7.90;75.80;;;;;;5047588;28;20686;-26
2023/12/08 03:26:59;;;;;;;0.00;0.00;;;7.90;75.80;;;;;;5048258;28;20216;-26
2023/12/08 03:29:26;;;;;;;0.00;0.00;;;7.90;75.80;;;;;;5047735;28;20431;-27
2023/12/08 03:32:01;;;;;;;0.00;0.00;;;7.90;76.60;;;;;;5049303;28;20292;-26
2023/12/08 03:34:30;;;;;;;0.00;0.00;;;7.90;75.70;;;;;;5050586;28;20733;-26
2023/12/08 03:36:58;;;;;;;0.00;0.00;;;7.90;75.80;;;;;;5049059;28;20792;-26
2023/12/08 03:39:27;;;;;;;0.00;0.00;;;7.90;75.80;;;;;;5049417;28;20204;-26
2023/12/08 03:41:59;;;;;;;0.00;0.00;;;7.90;75.80;;;;;;5047039;28;20196;-26
2023/12/08 03:44:31;;;;;;;0.00;0.00;;;7.90;75.90;;;;;;5047614;28;20220;-26
2023/12/08 03:46:58;;;;;;;0.00;0.00;;;7.90;75.90;;;;;;5047122;28;20207;-26
2023/12/08 03:49:25;;;;;;;0.00;0.00;;;7.90;75.80;;;;;;5047097;28;20255;-26
2023/12/08 03:51:55;;;;;;;0.00;0.00;;;7.90;75.80;;;;;;5046979;28;20610;-26
2023/12/08 03:54:25;;;;;;;0.00;0.00;;;7.90;75.80;;;;;;5047182;28;20216;-26
2023/12/08 03:56:58;;;;;;;0.00;0.00;;;7.90;75.70;;;;;;5046219;28;20518;-26
2023/12/08 03:59:27;;;;;;;0.00;0.00;;;7.90;75.90;;;;;;5045590;28;20228;-26
2023/12/08 04:01:59;;;;;;;0.00;0.00;;;7.90;76.30;;;;;;5046850;28;20219;-26
2023/12/08 04:04:29;;;;;;;0.00;0.00;;;7.90;76.00;;;;;;5046893;28;20200;-26
2023/12/08 04:06:56;;;;;;;0.00;0.00;;;7.90;75.90;;;;;;5045087;28;20258;-26
2023/12/08 04:09:23;;;;;;;0.00;0.00;;;7.90;75.90;;;;;;5046652;28;20208;-26
2023/12/08 04:11:58;;;;;;;0.00;0.00;;;7.90;76.00;;;;;;5066363;28;20546;-26
2023/12/08 04:14:26;;;;;;;0.00;0.00;;;7.90;75.90;;;;;;5066804;28;20298;-26
2023/12/08 04:16:58;;;;;;;0.00;0.00;;;7.90;75.90;;;;;;5050161;28;20354;-26
2023/12/08 04:19:27;;;;;;;0.00;0.00;;;7.90;76.00;;;;;;5068343;28;20598;-26
2023/12/08 04:21:55;;;;;;;0.00;0.00;;;8.00;76.00;;;;;;5066692;28;20202;-26
2023/12/08 04:24:27;;;;;;;0.00;0.00;;;8.00;76.00;;;;;;5066309;28;20577;-25
2023/12/08 04:26:58;;;;;;;0.00;0.00;;;8.00;76.00;;;;;;5066163;28;20444;-26
2023/12/08 04:29:28;;;;;;;0.00;0.00;;;8.00;76.00;;;;;;5066789;28;20273;-26
2023/12/08 04:32:01;;;;;;;0.00;0.00;;;8.00;76.00;;;;;;5066259;28;20199;-26
2023/12/08 04:34:28;;;;;;;0.00;0.00;;;8.00;76.00;;;;;;5065038;28;20295;-26
2023/12/08 04:36:58;;;;;;;0.00;0.00;;;8.00;76.00;;;;;;5066221;28;20512;-26
2023/12/08 04:39:28;;;;;;;0.00;0.00;;;8.00;76.00;;;;;;5065034;28;20232;-26
2023/12/08 04:41:58;;;;;;;0.00;0.00;;;8.00;76.00;;;;;;5064251;28;20223;-26
2023/12/08 04:44:25;;;;;;;0.00;0.00;;;8.00;76.00;;;;;;5066498;28;20274;-26
2023/12/08 04:46:55;;;;;;;0.00;0.00;;;8.00;76.00;;;;;;5065987;28;20215;-26
2023/12/08 04:49:22;;;;;;;0.00;0.00;;;8.00;76.00;;;;;;5064226;28;20218;-26
2023/12/08 04:51:51;;;;;;;0.00;0.00;;;8.00;76.00;;;;;;5065720;28;20257;-26
2023/12/08 04:54:21;;;;;;;0.00;0.00;;;8.00;76.00;;;;;;5065985;28;20260;-26
2023/12/08 04:56:51;;;;;;;0.00;0.00;;;8.10;76.00;;;;;;5063391;28;20223;-26
2023/12/08 04:59:18;;;;;;;0.00;0.00;;;8.10;76.00;;;;;;5064055;28;20677;-26
2023/12/08 05:01:52;;;;;;;0.00;0.00;;;8.10;76.10;;;;;;5065616;28;20203;-26
2023/12/08 05:04:22;;;;;;;0.00;0.00;;;8.10;76.00;;;;;;5062622;28;20625;-26
2023/12/08 05:06:52;;;;;;;0.00;0.00;;;8.10;76.10;;;;;;5065560;28;20265;-26
2023/12/08 05:09:22;;;;;;;0.00;0.00;;;8.10;76.20;;;;;;5066137;28;20208;-25
2023/12/08 05:11:49;;;;;;;0.00;0.00;;;8.10;76.10;;;;;;5066158;28;20582;-26
2023/12/08 05:14:16;;;;;;;0.00;0.00;;;8.10;76.20;;;;;;5065677;28;20336;-26
2023/12/08 05:16:46;;;;;;;0.00;0.00;;;8.10;76.20;;;;;;5065323;28;20211;-26
2023/12/08 05:19:13;;;;;;;0.00;0.00;;;8.10;76.20;;;;;;5065288;28;20199;-26
2023/12/08 05:21:42;;;;;;;0.00;0.00;;;8.10;76.10;;;;;;5063613;28;20219;-26
2023/12/08 05:24:10;;;;;;;0.00;0.00;;;8.10;76.20;;;;;;5063843;28;20529;-26
2023/12/08 05:26:37;;;;;;;0.00;0.00;;;8.10;76.20;;;;;;5062861;28;20192;-26
2023/12/08 05:29:07;;;;;;;0.00;0.00;;;8.20;76.30;;;;;;5063708;28;20200;-26
2023/12/08 05:31:37;;;;;;;0.00;0.00;;;8.20;76.30;;;;;;5063700;28;20203;-26
2023/12/08 05:34:07;;;;;;;0.00;0.00;;;8.20;76.30;;;;;;5065362;28;20203;-26
2023/12/08 05:36:36;;;;;;;0.00;0.00;;;8.20;76.30;;;;;;5064976;28;20203;-26
2023/12/08 05:39:03;;;;;;;0.00;0.00;;;8.20;76.30;;;;;;5065380;28;20209;-26
2023/12/08 05:41:31;;;;;;;0.00;0.00;;;8.20;76.20;;;;;;5063957;28;20284;-26
2023/12/08 05:43:58;;;;;;;0.00;0.00;;;8.20;76.20;;;;;;5065060;28;20196;-25
2023/12/08 05:46:28;;;;;;;0.00;0.00;;;8.30;76.40;;;;;;5065016;28;20192;-26
2023/12/08 05:48:57;;;;;;;0.00;0.00;;;8.30;76.40;;;;;;5063241;28;20288;-26
2023/12/08 05:51:25;;;;;;;0.00;0.00;;;8.30;76.40;;;;;;5064431;28;20200;-26
2023/12/08 05:53:55;;;;;;;0.00;0.00;;;8.30;76.40;;;;;;5062986;28;20204;-26
2023/12/08 05:56:24;;;;;;;0.00;0.00;;;8.30;76.40;;;;;;5062381;28;20306;-26
2023/12/08 05:58:54;;;;;;;0.00;0.00;;;8.30;76.40;;;;;;5049117;28;20246;-26
2023/12/08 06:01:27;;;;;;;0.00;0.00;;;8.30;76.40;;;;;;5048208;28;20204;-26
2023/12/08 06:03:57;;;;;;;0.00;0.00;;;8.40;76.50;;;;;;5055688;28;20208;-26
2023/12/08 06:06:24;;;;;;;0.00;0.00;;;8.40;76.50;;;;;;5055367;28;20232;-26
2023/12/08 06:08:55;;;;;;;0.00;0.00;;;8.40;76.60;;;;;;5049581;28;20711;-26
2023/12/08 06:11:24;;;;;;;0.00;0.00;;;8.40;76.50;;;;;;5051064;28;20197;-26
2023/12/08 06:13:54;;;;;;;0.00;0.00;;;8.40;76.60;;;;;;5050405;28;20219;-26
2023/12/08 06:16:27;;;;;;;0.00;0.00;;;8.40;76.60;;;;;;5051545;28;20303;-26
2023/12/08 06:18:54;;;;;;;0.00;0.00;;;8.50;76.60;;;;;;5052760;28;20226;-26
2023/12/08 06:21:24;;;;;;;0.00;0.00;;;8.50;76.60;;;;;;5050691;28;20210;-26
2023/12/08 06:23:51;;;;;;;0.00;0.00;;;8.50;76.60;;;;;;5043562;28;20247;-26
2023/12/08 06:26:21;;;;;;;0.00;0.00;;;8.50;76.60;;;;;;5043152;28;20223;-26
2023/12/08 06:28:49;;;;;;;0.00;0.00;;;8.60;76.80;;;;;;5044517;28;20211;-26
2023/12/08 06:31:19;;;;;;;0.00;0.00;;;8.60;76.70;;;;;;5045860;28;20200;-26
2023/12/08 06:33:51;;;;;;;0.00;0.00;;;8.60;76.70;;;;;;5055350;28;20310;-26
2023/12/08 06:36:47;;;;;;;0.00;0.00;;;8.60;76.70;;;;;;5062592;28;20198;-26
2023/12/08 06:39:20;;;;;;;0.00;0.00;;;8.60;76.80;;;;;;5064509;28;20321;-27
2023/12/08 06:41:48;;;;;;;0.00;0.00;;;8.60;76.80;;;;;;5050535;28;20223;-27
2023/12/08 06:44:15;;;;;;;0.00;0.00;;;8.60;76.80;;;;;;5062067;28;20283;-27
2023/12/08 06:46:48;;;;;;;0.00;0.00;;;8.70;76.90;;;;;;5061955;28;20200;-27
2023/12/08 06:49:19;;;;;;;0.00;0.00;;;8.70;76.80;;;;;;5063466;28;20204;-27
2023/12/08 06:51:49;;;;;;;0.00;0.00;;;8.70;76.80;;;;;;5061728;28;20222;-27
2023/12/08 06:54:18;;;;;;;0.00;0.00;;;8.70;76.80;;;;;;5061755;28;20721;-27
2023/12/08 06:56:46;;;;;;;0.00;0.00;;;8.80;76.90;;;;;;5065770;28;20222;-26
2023/12/08 06:59:16;;;;;;;0.00;0.00;;;8.80;76.90;;;;;;5065969;28;20713;-27
2023/12/08 07:01:46;;;;;;;0.00;0.00;;;8.70;76.80;;;;;;5052818;28;20291;-27
2023/12/08 07:04:13;;;;;;;0.00;0.00;;;8.80;76.90;;;;;;5053360;28;20206;-27
2023/12/08 07:06:44;;;;;;;0.00;0.00;;;8.80;76.90;;;;;;5053171;28;20252;-31
2023/12/08 07:09:16;;;;;;;0.00;0.00;;;8.80;76.90;;;;;;5071122;28;20683;-27
2023/12/08 07:11:43;;;;;;;0.00;0.00;;;8.80;76.90;;;;;;5076648;28;20240;-26
2023/12/08 07:14:15;;;;;;;0.00;0.00;;;8.80;76.90;;;;;;5048471;28;20647;-27
2023/12/08 07:16:45;;;;;;;0.00;0.00;;;8.80;76.90;;;;;;5045744;28;20246;-27
2023/12/08 07:19:13;;;;;;;0.00;0.00;;;8.80;76.90;;;;;;5055007;28;20231;-26
2023/12/08 07:21:44;;;;;;;0.00;0.00;;;8.90;77.00;;;;;;5046708;28;20299;-26
2023/12/08 07:24:14;;;;;;;0.00;0.00;;;8.90;77.10;;;;;;5042004;28;20212;-27
2023/12/08 07:26:46;;;;;;;0.00;0.00;;;8.90;77.10;;;;;;5061435;28;20204;-27
2023/12/08 07:29:13;;;;;;;0.00;0.00;;;9.00;77.20;;;;;;5055156;28;20223;-26
2023/12/08 07:31:40;;;;;;;0.00;0.00;;;8.90;77.10;;;;;;5049981;28;20218;-27
2023/12/08 07:34:07;;;;;;;0.00;0.00;;;9.00;77.20;;;;;;5052004;28;20744;-26
2023/12/08 07:36:37;;;;;;;0.00;0.00;;;9.00;77.20;;;;;;5049385;28;20216;-26
2023/12/08 07:39:09;;;;;;;0.00;0.00;;;9.10;77.20;;;;;;5059856;28;20216;-27
2023/12/08 07:41:38;;;;;;;0.00;0.00;;;9.10;77.20;;;;;;5049277;28;20212;-26
2023/12/08 07:44:06;;;;;;;0.00;0.00;;;9.10;77.20;;;;;;5060373;28;20295;-26
2023/12/08 07:46:33;;;;;;;0.00;0.00;;;9.10;77.10;;;;;;5062260;28;20202;-26
2023/12/08 07:49:03;;;;;;;0.00;0.00;;;9.10;77.20;;;;;;5041140;28;20214;-26
2023/12/08 07:51:33;;;;;;;0.00;0.00;;;9.10;77.10;;;;;;5055244;28;20238;-26
2023/12/08 07:54:05;;;;;;;0.00;0.00;;;9.20;77.20;;;;;;5060668;28;20307;-26
2023/12/08 07:56:35;;;;;;;0.00;0.00;;;9.20;77.20;;;;;;5067311;28;20219;-26
2023/12/08 07:59:07;;;;;;;0.00;0.00;;;9.20;77.30;;;;;;5055928;28;20254;-26
2023/12/08 08:01:35;;;;;;;0.00;0.00;;;9.20;77.30;;;;;;5055469;28;20219;-26
2023/12/08 08:04:02;;;;;;;0.00;0.00;;;9.20;77.30;;;;;;5052226;28;20200;-26
2023/12/08 08:06:30;;;;;;;0.00;0.00;;;9.30;77.40;;;;;;5048185;28;20244;-26
2023/12/08 08:08:57;;;;;;;0.00;0.00;;;9.30;77.30;;;;;;5047121;28;20678;-26
2023/12/08 08:11:24;;;;;;;0.00;0.00;;;9.30;77.30;;;;;;5034993;28;20725;-26
2023/12/08 08:13:58;;;;;;;0.00;0.00;;;9.30;77.40;;;;;;5064998;28;20567;-26
2023/12/08 08:16:25;;;;;;;0.00;0.00;;;9.30;77.40;;;;;;5053005;28;20249;-26
2023/12/08 08:18:54;;;;;;;0.00;0.00;;;9.40;77.50;;;;;;5052090;28;20235;-26
2023/12/08 08:21:24;;;;;;;0.00;0.00;;;9.40;77.50;;;;;;5052482;28;20199;-26
2023/12/08 08:23:51;;;;;;;0.00;0.00;;;9.40;77.40;;;;;;5061793;28;20638;-26
2023/12/08 08:26:18;;;;;;;0.00;0.00;;;9.50;77.50;;;;;;5060926;28;20789;-26
2023/12/08 08:28:46;;;;;;;0.00;0.00;;;9.50;77.60;;;;;;5054728;28;20197;-26
2023/12/08 08:31:17;;;;;;;0.00;0.00;;;9.50;77.50;;;;;;5055212;28;20216;-26
2023/12/08 08:33:47;;;;;;;0.00;0.00;;;9.50;77.50;;;;;;5065340;28;20250;-26
2023/12/08 08:36:17;;;;;;;0.00;0.00;;;9.50;77.40;;;;;;5060901;28;20557;-26
2023/12/08 08:38:45;;;;;;;0.00;0.00;;;9.50;77.50;;;;;;5047795;28;20228;-26
2023/12/08 08:41:12;;;;;;;0.00;0.00;;;9.50;77.50;;;;;;5046946;28;20208;-26
2023/12/08 08:43:46;;;;;;;0.00;0.00;;;9.60;77.60;;;;;;5046739;28;20227;-26
2023/12/08 08:46:13;;;;;;;0.00;0.00;;;9.60;77.60;;;;;;5043572;28;20788;-26
2023/12/08 08:48:43;;;;;;;0.00;0.00;;;9.60;77.60;;;;;;5045161;28;20209;-26
2023/12/08 08:51:11;;;;;;;0.00;0.00;;;9.60;77.60;;;;;;5043561;28;20651;-26
2023/12/08 08:53:41;;;;;;;0.00;0.00;;;9.60;77.60;;;;;;5053183;28;20329;-26
2023/12/08 08:56:08;;;;;;;0.00;0.00;;;9.60;77.70;;;;;;5062283;28;20620;-26
2023/12/08 08:58:37;;;;;;;0.00;0.00;;;9.70;77.70;;;;;;5051035;28;20224;-26
2023/12/08 09:01:09;;;;;;;0.00;0.00;;;9.70;77.70;;;;;;5048129;28;20197;-26
2023/12/08 09:03:37;;;;;;;0.00;0.00;;;9.70;77.90;;;;;;5045846;28;20674;-26
2023/12/08 09:06:04;;;;;;;0.00;0.00;;;9.70;77.80;;;;;;5051647;28;20263;-26
2023/12/08 09:08:32;;;;;;;0.00;0.00;;;9.70;77.90;;;;;;5055128;28;20239;-26
2023/12/08 09:10:59;;;;;;;0.00;0.00;;;9.80;77.90;;;;;;5064399;28;20219;-26
2023/12/08 09:13:31;;;;;;;0.00;0.00;;;9.80;77.80;;;;;;5067078;28;20658;-26
2023/12/08 09:15:59;;;;;;;0.00;0.00;;;9.80;77.90;;;;;;5057874;28;20261;-26
2023/12/08 09:18:26;;;;;;;0.00;0.00;;;9.90;78.00;;;;;;5047474;28;20208;-26
2023/12/08 09:21:05;;;;;;;0.00;0.00;;;9.90;78.00;;;;;;5046360;28;20866;-26
2023/12/08 09:23:33;;;;;;;0.00;0.00;;;9.90;78.80;;;;;;5043943;28;20294;-26
2023/12/08 09:26:02;;;;;;;0.00;0.00;;;9.90;78.00;;;;;;5048225;28;20627;-26
2023/12/08 09:28:30;;;;;;;0.00;0.00;;;10.00;78.00;;;;;;5057175;28;20378;-26
2023/12/08 09:31:01;;;;;;;0.00;0.00;;;10.00;78.00;;;;;;5050040;28;20204;-26
2023/12/08 09:33:31;;;;;;;0.00;0.00;;;10.10;78.10;;;;;;5048036;28;20658;-26
2023/12/08 09:35:59;;;;;;;0.00;0.00;;;10.10;78.10;;;;;;5064450;28;20229;-26
2023/12/08 09:38:29;;;;;;;0.00;0.00;;;10.10;78.10;;;;;;5065778;28;20219;-26
2023/12/08 09:41:04;;;;;;;0.00;0.00;;;10.10;78.10;;;;;;5067415;28;21040;-26
2023/12/08 09:44:08;;;;;;;0.00;0.00;;;10.10;78.10;;;;;;5062706;28;20628;-25
2023/12/08 09:46:45;;;;;;;0.00;0.00;;;10.20;78.20;;;;;;5048043;28;20207;-26
2023/12/08 09:49:32;;;;;;;0.00;0.00;;;10.20;78.20;;;;;;5046305;28;20215;-26
2023/12/08 09:52:05;;;;;;;0.00;0.00;;;10.30;78.30;;;;;;5058114;28;20240;-26
2023/12/08 09:54:35;;;;;;;0.00;0.00;;;10.30;78.30;;;;;;5057386;28;20247;-26
2023/12/08 09:57:08;;;;;;;0.00;0.00;;;10.30;78.30;;;;;;5052821;28;20207;-26
2023/12/08 09:59:41;;;;;;;0.00;0.00;;;10.30;78.30;;;;;;5061689;28;20642;-26
2023/12/08 10:02:10;;;;;;;0.00;0.00;;;10.40;78.40;;;;;;5059403;28;20212;-26
2023/12/08 10:04:37;;;;;;;0.00;0.00;;;10.40;78.30;;;;;;5064156;28;20241;-26
2023/12/08 10:07:09;;;;;;;0.00;0.00;;;10.40;78.20;;;;;;5062082;28;20719;-26
2023/12/08 10:09:37;;;;;;;0.00;0.00;;;10.50;78.30;;;;;;5057483;28;20214;-26
2023/12/08 10:12:05;;;;;;;0.00;0.00;;;10.50;78.20;;;;;;5065377;28;20666;-26
2023/12/08 10:14:50;;;;;;;0.00;0.00;;;10.50;78.20;;;;;;5054387;28;20244;-26
2023/12/08 10:17:18;;;;;;;0.00;0.00;;;10.60;78.30;;;;;;5029536;28;20569;-26
2023/12/08 10:19:45;;;;;;;0.00;0.00;;;10.60;78.30;;;;;;5053259;28;20231;-26
2023/12/08 10:22:15;;;;;;;0.00;0.00;;;10.60;78.30;;;;;;5048869;28;20212;-26
2023/12/08 10:24:44;;;;;;;0.00;0.00;;;10.60;78.30;;;;;;5044528;28;20196;-26
2023/12/08 10:27:13;;;;;;;0.00;0.00;;;10.60;78.30;;;;;;5044380;28;20752;-26
2023/12/08 10:29:40;;;;;;;0.00;0.00;;;10.70;78.40;;;;;;5046104;28;20338;-26
2023/12/08 10:32:10;;;;;;;0.00;0.00;;;10.70;78.40;;;;;;5044344;28;20227;-26
2023/12/08 10:34:39;;;;;;;0.00;0.00;;;10.70;78.40;;;;;;5046129;28;20580;-26
2023/12/08 10:37:09;;;;;;;0.00;0.00;;;10.70;78.50;;;;;;5046990;28;20204;-26
2023/12/08 10:39:36;;;;;;;0.00;0.00;;;10.80;78.50;;;;;;5042321;28;20234;-26
2023/12/08 10:42:05;;;;;;;0.00;0.00;;;10.80;78.50;;;;;;5042758;28;20305;-26
2023/12/08 10:44:32;;;;;;;0.00;0.00;;;10.80;78.50;;;;;;5044040;28;20250;-27
2023/12/08 10:47:00;;;;;;;0.00;0.00;;;10.80;78.50;;;;;;5042335;28;20686;-26
2023/12/08 10:49:34;;;;;;;0.00;0.00;;;10.90;78.50;;;;;;5048169;28;20558;-26
2023/12/08 10:52:05;;;;;;;0.00;0.00;;;10.90;78.50;;;;;;5045136;28;20682;-26
2023/12/08 10:54:36;;;;;;;0.00;0.00;;;10.90;78.40;;;;;;5046387;28;20567;-26
2023/12/08 10:57:06;;;;;;;0.00;0.00;;;10.90;78.50;;;;;;5045318;28;20223;-26
2023/12/08 10:59:37;;;;;;;0.00;0.00;;;10.90;78.40;;;;;;5045903;28;20235;-26
2023/12/08 11:02:20;;;;;;;0.00;0.00;;;10.90;78.40;;;;;;5045942;28;20196;-26
2023/12/08 11:04:54;;;;;;;0.00;0.00;;;10.90;79.20;;;;;;5045937;28;20208;-26
2023/12/08 11:07:28;;;;;;;0.00;0.00;;;11.00;78.60;;;;;;5044081;28;20272;-26
2023/12/08 11:10:02;;;;;;;0.00;0.00;;;11.00;78.60;;;;;;5048179;28;20210;-26
2023/12/08 11:12:34;;;;;;;0.00;0.00;;;11.00;78.50;;;;;;5059125;28;20635;-26
2023/12/08 11:15:09;;;;;;;0.00;0.00;;;11.00;78.50;;;;;;5066103;28;20673;-26
2023/12/08 11:18:02;;;;;;;0.00;0.00;;;11.00;78.60;;;;;;5066969;28;20203;-26
2023/12/08 11:20:32;;;;;;;0.00;0.00;;;11.00;78.50;;;;;;5050674;28;20254;-26
2023/12/08 11:23:05;;;;;;;0.00;0.00;;;11.00;78.50;;;;;;5038097;28;20235;-26
2023/12/08 11:25:42;;;;;;;0.00;0.00;;;11.00;78.50;;;;;;5063035;28;20212;-26
2023/12/08 11:28:32;;;;;;;0.00;0.00;;;11.00;78.50;;;;;;5059200;28;20210;-26
2023/12/08 11:31:08;;;;;;;0.00;0.00;;;11.00;78.60;;;;;;5054184;28;20731;-26
2023/12/08 11:33:56;;;;;;;0.00;0.00;;;11.00;78.50;;;;;;5060818;28;20215;-26
2023/12/08 11:36:28;;;;;;;0.00;0.00;;;11.00;78.60;;;;;;5067271;28;20210;-26
2023/12/08 11:39:00;;;;;;;0.00;0.00;;;11.00;78.50;;;;;;5058555;28;20220;-27
2023/12/08 11:41:29;;;;;;;0.00;0.00;;;11.00;78.60;;;;;;5048779;28;20315;-26
2023/12/08 11:44:09;;;;;;;0.00;0.00;;;11.00;79.40;;;;;;5048470;28;20726;-27
2023/12/08 11:46:39;;;;;;;0.00;0.00;;;11.00;78.60;;;;;;5052118;28;20210;-26
2023/12/08 11:49:09;;;;;;;0.00;0.00;;;11.10;78.70;;;;;;5049290;28;20243;-26
2023/12/08 11:51:39;;;;;;;0.00;0.00;;;11.00;78.60;;;;;;5066213;28;20211;-26
2023/12/08 11:54:06;;;;;;;0.00;0.00;;;11.10;78.60;;;;;;5049521;28;20784;-26
2023/12/08 11:56:45;;;;;;;0.00;0.00;;;11.10;78.60;;;;;;5060584;28;20298;-26
2023/12/08 11:59:20;;;;;;;0.00;0.00;;;11.10;78.70;;;;;;5053972;28;20219;-26
2023/12/08 12:01:49;;;;;;;0.00;0.00;;;11.10;78.60;;;;;;5064685;28;20207;-26
2023/12/08 12:04:19;;;;;;;0.00;0.00;;;11.10;78.60;;;;;;5058244;28;20210;-26
2023/12/08 12:06:49;;;;;;;0.00;0.00;;;11.10;78.70;;;;;;5065889;28;20228;-26
2023/12/08 12:09:18;;;;;;;0.00;0.00;;;11.10;78.70;;;;;;5066210;28;20571;-26
2023/12/08 12:11:52;;;;;;;0.00;0.00;;;11.10;78.70;;;;;;5055201;28;20289;-26
2023/12/08 12:14:23;;;;;;;0.00;0.00;;;11.10;78.60;;;;;;5062915;28;20226;-26
2023/12/08 12:16:51;;;;;;;0.00;0.00;;;11.10;78.70;;;;;;5046274;28;20592;-26
2023/12/08 12:19:19;;;;;;;0.00;0.00;;;11.10;78.70;;;;;;5055854;28;20225;-26
2023/12/08 12:21:50;;;;;;;0.00;0.00;;;11.10;78.70;;;;;;5061157;28;20219;-26
2023/12/08 12:24:18;;;;;;;0.00;0.00;;;11.20;78.70;;;;;;5056548;28;20234;-26
2023/12/08 12:26:49;;;;;;;0.00;0.00;;;11.20;78.80;;;;;;5053851;28;20266;-26
2023/12/08 12:29:19;;;;;;;0.00;0.00;;;11.20;78.80;;;;;;5059363;28;20223;-26
2023/12/08 12:31:51;;;;;;;0.00;0.00;;;11.20;78.80;;;;;;5058590;28;20206;-26
2023/12/08 12:34:20;;;;;;;0.00;0.00;;;11.20;78.80;;;;;;5052001;28;20718;-26
2023/12/08 12:36:48;;;;;;;0.00;0.00;;;11.20;78.80;;;;;;5061504;28;20224;-26
2023/12/08 12:39:17;;;;;;;0.00;0.00;;;11.20;78.70;;;;;;5067503;28;20220;-26
2023/12/08 12:41:44;;;;;;;0.00;0.00;;;11.20;78.70;;;;;;5056186;28;20231;-26
2023/12/08 12:44:14;;;;;;;0.00;0.00;;;11.20;78.70;;;;;;5046110;28;20200;-27
2023/12/08 12:46:42;;;;;;;0.00;0.00;;;11.30;78.70;;;;;;5048391;28;20200;-26
2023/12/08 12:49:18;;;;;;;0.00;0.00;;;11.30;78.70;;;;;;5046362;28;20208;-26
2023/12/08 12:51:47;;;;;;;0.00;0.00;;;11.30;78.80;;;;;;5059327;28;20561;-26
2023/12/08 12:54:33;;;;;;;0.00;0.00;;;11.30;79.60;;;;;;5060157;28;20776;-26
2023/12/08 12:57:02;;;;;;;0.00;0.00;;;11.30;78.90;;;;;;5061357;28;20251;-26
2023/12/08 12:59:32;;;;;;;0.00;0.00;;;11.30;78.80;;;;;;5047688;28;20311;-26
2023/12/08 13:02:01;;;;;;;0.00;0.00;;;11.30;78.80;;;;;;5055324;28;20204;-26
2023/12/08 13:04:29;;;;;;;0.00;0.00;;;11.30;78.80;;;;;;5059313;28;20211;-26
2023/12/08 13:07:11;;;;;;;0.00;0.00;;;11.30;78.80;;;;;;5062683;28;20235;-26
2023/12/08 13:09:43;;;;;;;0.00;0.00;;;11.30;78.90;;;;;;5047434;28;20252;-26
2023/12/08 13:12:12;;;;;;;0.00;0.00;;;11.30;78.80;;;;;;5046846;28;20203;-26